This is the latest recevied weather packets stored in our database for station/object KY4EF. If no packets are shown the sender has not sent any weather packets the latest 10 day(s).
| Time | Temp. | Humidity | Pressure | Rain* | Wind** | Luminosity | Snow |
|---|---|---|---|---|---|---|---|
| 1777660428 | 18.89° C | 53% | 1011.7 hPa | 0 mm | - | 457 W/m² | - |
| 1777660124 | 20° C | 44% | 1011.7 hPa | 0 mm | - | 314 W/m² | - |
| 1777659821 | 19.44° C | 47% | 1011.9 hPa | 0 mm | - | 284 W/m² | - |
| 1777659518 | 20° C | 43% | 1011.9 hPa | 0 mm | - | 281 W/m² | - |
| 1777659215 | 18.89° C | 49% | 1011.9 hPa | 0 mm | - | 257 W/m² | - |
| 1777658912 | 19.44° C | 48% | 1011.9 hPa | 0 mm | - | 268 W/m² | - |
| 1777658608 | 20.56° C | 44% | 1011.7 hPa | 0 mm | - | 335 W/m² | - |
| 1777658306 | 21.11° C | 41% | 1011.7 hPa | 0 mm | - | 368 W/m² | - |
| 1777658002 | 20.56° C | 41% | 1011.8 hPa | 0 mm | - | 347 W/m² | - |
| 1777657699 | 20° C | 44% | 1012.2 hPa | 0 mm | - | 374 W/m² | - |
| 1777657396 | 19.44° C | 46% | 1011.6 hPa | 0 mm | - | 549 W/m² | - |
| 1777657095 | 20° C | 45% | 1011.8 hPa | 0 mm | - | 313 W/m² | - |
| 1777656791 | 20.56° C | 44% | 1012 hPa | 0 mm | - | 447 W/m² | - |
| 1777656487 | 19.44° C | 46% | 1011.9 hPa | 0 mm | - | 293 W/m² | - |
| 1777656182 | 18.89° C | 48% | 1011.8 hPa | 0 mm | - | 243 W/m² | - |
| 1777655878 | 19.44° C | 44% | 1011.9 hPa | 0 mm | - | 242 W/m² | - |
| 1777655575 | 18.89° C | 45% | 1011.9 hPa | 0 mm | - | 326 W/m² | - |
| 1777655266 | 18.33° C | 48% | 1011.9 hPa | 0 mm | - | 333 W/m² | - |
| 1777654963 | 18.89° C | 47% | 1012 hPa | 0 mm | - | 191 W/m² | - |
| 1777654660 | 18.89° C | 43% | 1012.2 hPa | 0 mm | - | 237 W/m² | - |
| 1777654358 | 18.89° C | 43% | 1012 hPa | 0 mm | - | 254 W/m² | - |
| 1777654056 | 20° C | 41% | 1012.3 hPa | 0 mm | - | 257 W/m² | - |
| 1777653752 | 19.44° C | 44% | 1012.2 hPa | 0 mm | - | 201 W/m² | - |
| 1777653449 | 20° C | 43% | 1012.4 hPa | 0 mm | - | 245 W/m² | - |
| 1777653146 | 20° C | 40% | 1012.4 hPa | 0 mm | - | 258 W/m² | - |
* Rain latest hour (hover to see other rain measurements)
** Current wind speed in m/s (hover to see current wind gust speed)